sensor_id;sensor_type;location;lat;lon;timestamp;pressure;altitude;pressure_sealevel;temperature;humidity
73267;BME280;61495;53.400;7.608;2023-11-19T00:02:07;100478.88;;;7.11;100.00
73267;BME280;61495;53.400;7.608;2023-11-19T00:04:36;100500.41;;;7.09;100.00
73267;BME280;61495;53.400;7.608;2023-11-19T00:07:01;100471.34;;;7.14;100.00
73267;BME280;61495;53.400;7.608;2023-11-19T00:09:29;100488.59;;;7.18;100.00
73267;BME280;61495;53.400;7.608;2023-11-19T00:11:55;100468.34;;;7.31;100.00
73267;BME280;61495;53.400;7.608;2023-11-19T00:14:20;100475.56;;;7.30;100.00
73267;BME280;61495;53.400;7.608;2023-11-19T00:16:46;100483.78;;;7.35;100.00
73267;BME280;61495;53.400;7.608;2023-11-19T00:19:11;100467.84;;;7.42;100.00
73267;BME280;61495;53.400;7.608;2023-11-19T00:21:37;100454.34;;;7.50;100.00
73267;BME280;61495;53.400;7.608;2023-11-19T00:24:02;100462.97;;;7.52;100.00
73267;BME280;61495;53.400;7.608;2023-11-19T00:26:27;100451.50;;;7.58;100.00
73267;BME280;61495;53.400;7.608;2023-11-19T00:28:53;100437.66;;;7.69;100.00
73267;BME280;61495;53.400;7.608;2023-11-19T00:31:18;100419.63;;;7.84;100.00
73267;BME280;61495;53.400;7.608;2023-11-19T00:33:43;100420.91;;;7.95;100.00
73267;BME280;61495;53.400;7.608;2023-11-19T00:36:09;100430.38;;;7.97;100.00
73267;BME280;61495;53.400;7.608;2023-11-19T00:38:34;100424.63;;;8.00;100.00
73267;BME280;61495;53.400;7.608;2023-11-19T00:41:00;100411.09;;;8.08;100.00
73267;BME280;61495;53.400;7.608;2023-11-19T00:43:25;100393.06;;;8.17;100.00
73267;BME280;61495;53.400;7.608;2023-11-19T00:45:51;100380.78;;;8.22;100.00
73267;BME280;61495;53.400;7.608;2023-11-19T00:48:16;100392.91;;;8.31;100.00
73267;BME280;61495;53.400;7.608;2023-11-19T00:50:42;100386.34;;;8.41;100.00
73267;BME280;61495;53.400;7.608;2023-11-19T00:53:09;100397.66;;;8.43;100.00
73267;BME280;61495;53.400;7.608;2023-11-19T00:55:35;100401.78;;;8.45;100.00
73267;BME280;61495;53.400;7.608;2023-11-19T00:58:00;100398.31;;;8.58;100.00
73267;BME280;61495;53.400;7.608;2023-11-19T01:00:25;100391.09;;;8.65;100.00
73267;BME280;61495;53.400;7.608;2023-11-19T01:02:52;100387.84;;;8.69;100.00
73267;BME280;61495;53.400;7.608;2023-11-19T01:05:18;100387.59;;;8.71;100.00
73267;BME280;61495;53.400;7.608;2023-11-19T01:07:47;100372.22;;;8.73;100.00
73267;BME280;61495;53.400;7.608;2023-11-19T01:10:12;100374.25;;;8.77;100.00
73267;BME280;61495;53.400;7.608;2023-11-19T01:12:38;100371.38;;;8.79;100.00
73267;BME280;61495;53.400;7.608;2023-11-19T01:15:05;100369.28;;;8.94;100.00
73267;BME280;61495;53.400;7.608;2023-11-19T01:17:30;100369.94;;;8.96;100.00
73267;BME280;61495;53.400;7.608;2023-11-19T01:19:57;100368.06;;;9.03;100.00
73267;BME280;61495;53.400;7.608;2023-11-19T01:22:22;100362.28;;;9.06;100.00
73267;BME280;61495;53.400;7.608;2023-11-19T01:24:48;100359.00;;;9.11;100.00
73267;BME280;61495;53.400;7.608;2023-11-19T01:27:14;100361.03;;;9.15;100.00
73267;BME280;61495;53.400;7.608;2023-11-19T01:29:39;100359.41;;;9.14;100.00
73267;BME280;61495;53.400;7.608;2023-11-19T01:32:05;100354.84;;;9.21;100.00
73267;BME280;61495;53.400;7.608;2023-11-19T01:34:30;100334.91;;;9.24;100.00
73267;BME280;61495;53.400;7.608;2023-11-19T01:36:56;100332.63;;;9.27;100.00
73267;BME280;61495;53.400;7.608;2023-11-19T01:39:21;100329.78;;;9.29;100.00
73267;BME280;61495;53.400;7.608;2023-11-19T01:41:47;100331.78;;;9.33;100.00
73267;BME280;61495;53.400;7.608;2023-11-19T01:44:12;100340.41;;;9.35;100.00
73267;BME280;61495;53.400;7.608;2023-11-19T01:46:38;100342.47;;;9.40;100.00
73267;BME280;61495;53.400;7.608;2023-11-19T01:49:05;100344.72;;;9.43;100.00
73267;BME280;61495;53.400;7.608;2023-11-19T01:51:31;100347.56;;;9.48;100.00
73267;BME280;61495;53.400;7.608;2023-11-19T01:53:57;100335.44;;;9.52;100.00
73267;BME280;61495;53.400;7.608;2023-11-19T01:56:24;100339.09;;;9.58;100.00
73267;BME280;61495;53.400;7.608;2023-11-19T01:58:50;100337.03;;;9.60;100.00
73267;BME280;61495;53.400;7.608;2023-11-19T02:01:15;100334.97;;;9.62;100.00
73267;BME280;61495;53.400;7.608;2023-11-19T02:03:42;100328.78;;;9.68;100.00
73267;BME280;61495;53.400;7.608;2023-11-19T02:06:07;100321.34;;;9.70;100.00
73267;BME280;61495;53.400;7.608;2023-11-19T02:08:35;100311.88;;;9.74;100.00
73267;BME280;61495;53.400;7.608;2023-11-19T02:11:00;100311.47;;;9.77;100.00
73267;BME280;61495;53.400;7.608;2023-11-19T02:13:27;100302.38;;;9.78;100.00
73267;BME280;61495;53.400;7.608;2023-11-19T02:15:54;100304.63;;;9.81;100.00
73267;BME280;61495;53.400;7.608;2023-11-19T02:18:27;100303.16;;;9.85;100.00
73267;BME280;61495;53.400;7.608;2023-11-19T02:20:54;100308.47;;;9.91;100.00
73267;BME280;61495;53.400;7.608;2023-11-19T02:23:20;100310.09;;;9.92;100.00
73267;BME280;61495;53.400;7.608;2023-11-19T02:28:36;100305.16;;;9.96;100.00
73267;BME280;61495;53.400;7.608;2023-11-19T02:31:02;100305.75;;;9.98;100.00
73267;BME280;61495;53.400;7.608;2023-11-19T02:33:30;100306.38;;;10.00;100.00
73267;BME280;61495;53.400;7.608;2023-11-19T02:35:55;100289.88;;;10.03;100.00
73267;BME280;61495;53.400;7.608;2023-11-19T02:38:21;100298.28;;;10.07;100.00
73267;BME280;61495;53.400;7.608;2023-11-19T02:40:47;100290.63;;;10.10;100.00
73267;BME280;61495;53.400;7.608;2023-11-19T02:43:14;100293.09;;;10.12;100.00
73267;BME280;61495;53.400;7.608;2023-11-19T02:45:39;100298.88;;;10.15;100.00
73267;BME280;61495;53.400;7.608;2023-11-19T02:48:05;100296.38;;;10.20;100.00
73267;BME280;61495;53.400;7.608;2023-11-19T02:50:31;100302.53;;;10.21;100.00
73267;BME280;61495;53.400;7.608;2023-11-19T02:52:57;100299.63;;;10.22;100.00
73267;BME280;61495;53.400;7.608;2023-11-19T02:55:23;100305.38;;;10.26;100.00
73267;BME280;61495;53.400;7.608;2023-11-19T02:57:49;100293.63;;;10.27;100.00
73267;BME280;61495;53.400;7.608;2023-11-19T03:02:41;100303.47;;;10.33;100.00
73267;BME280;61495;53.400;7.608;2023-11-19T03:05:14;100301.63;;;10.33;100.00
73267;BME280;61495;53.400;7.608;2023-11-19T03:07:43;100307.56;;;10.35;100.00
73267;BME280;61495;53.400;7.608;2023-11-19T03:10:10;100297.88;;;10.34;100.00
73267;BME280;61495;53.400;7.608;2023-11-19T03:12:39;100292.34;;;10.36;100.00
73267;BME280;61495;53.400;7.608;2023-11-19T03:15:05;100281.38;;;10.37;100.00
73267;BME280;61495;53.400;7.608;2023-11-19T03:17:30;100290.00;;;10.39;100.00
73267;BME280;61495;53.400;7.608;2023-11-19T03:19:56;100288.53;;;10.43;100.00
73267;BME280;61495;53.400;7.608;2023-11-19T03:22:21;100292.88;;;10.44;100.00
73267;BME280;61495;53.400;7.608;2023-11-19T03:24:47;100280.50;;;10.43;100.00
73267;BME280;61495;53.400;7.608;2023-11-19T03:27:12;100280.91;;;10.47;100.00
73267;BME280;61495;53.400;7.608;2023-11-19T03:29:38;100278.44;;;10.45;100.00
73267;BME280;61495;53.400;7.608;2023-11-19T03:32:04;100271.59;;;10.49;100.00
73267;BME280;61495;53.400;7.608;2023-11-19T03:34:29;100270.56;;;10.50;100.00
73267;BME280;61495;53.400;7.608;2023-11-19T03:36:55;100267.91;;;10.50;100.00
73267;BME280;61495;53.400;7.608;2023-11-19T03:39:21;100275.50;;;10.53;100.00
73267;BME280;61495;53.400;7.608;2023-11-19T03:41:50;100264.78;;;10.53;100.00
73267;BME280;61495;53.400;7.608;2023-11-19T03:44:15;100266.38;;;10.54;100.00
73267;BME280;61495;53.400;7.608;2023-11-19T03:46:40;100271.94;;;10.59;100.00
73267;BME280;61495;53.400;7.608;2023-11-19T03:49:06;100265.50;;;10.60;100.00
73267;BME280;61495;53.400;7.608;2023-11-19T03:51:32;100268.81;;;10.63;100.00
73267;BME280;61495;53.400;7.608;2023-11-19T03:53:57;100274.97;;;10.63;100.00
73267;BME280;61495;53.400;7.608;2023-11-19T03:56:24;100273.94;;;10.64;100.00
73267;BME280;61495;53.400;7.608;2023-11-19T03:58:49;100265.06;;;10.64;100.00
73267;BME280;61495;53.400;7.608;2023-11-19T04:01:15;100272.06;;;10.65;100.00
73267;BME280;61495;53.400;7.608;2023-11-19T04:03:40;100263.00;;;10.66;100.00
73267;BME280;61495;53.400;7.608;2023-11-19T04:06:06;100264.63;;;10.67;100.00
73267;BME280;61495;53.400;7.608;2023-11-19T04:08:32;100258.25;;;10.68;100.00
73267;BME280;61495;53.400;7.608;2023-11-19T04:10:57;100242.38;;;10.66;100.00
73267;BME280;61495;53.400;7.608;2023-11-19T04:13:22;100249.38;;;10.67;100.00
73267;BME280;61495;53.400;7.608;2023-11-19T04:15:49;100239.50;;;10.68;100.00
73267;BME280;61495;53.400;7.608;2023-11-19T04:18:15;100251.84;;;10.69;100.00
73267;BME280;61495;53.400;7.608;2023-11-19T04:20:41;100243.81;;;10.69;100.00
73267;BME280;61495;53.400;7.608;2023-11-19T04:23:08;100242.16;;;10.68;100.00
73267;BME280;61495;53.400;7.608;2023-11-19T04:25:33;100241.13;;;10.69;100.00
73267;BME280;61495;53.400;7.608;2023-11-19T04:27:59;100235.78;;;10.69;100.00
73267;BME280;61495;53.400;7.608;2023-11-19T04:30:25;100242.75;;;10.70;100.00
73267;BME280;61495;53.400;7.608;2023-11-19T04:32:50;100239.03;;;10.71;100.00
73267;BME280;61495;53.400;7.608;2023-11-19T04:35:16;100234.72;;;10.70;100.00
73267;BME280;61495;53.400;7.608;2023-11-19T04:37:42;100234.50;;;10.71;100.00
73267;BME280;61495;53.400;7.608;2023-11-19T04:40:07;100231.22;;;10.69;100.00
73267;BME280;61495;53.400;7.608;2023-11-19T04:42:33;100224.81;;;10.70;100.00
73267;BME280;61495;53.400;7.608;2023-11-19T04:44:58;100227.50;;;10.70;100.00
73267;BME280;61495;53.400;7.608;2023-11-19T04:47:24;100232.03;;;10.70;100.00
73267;BME280;61495;53.400;7.608;2023-11-19T04:49:49;100233.69;;;10.71;100.00
73267;BME280;61495;53.400;7.608;2023-11-19T04:52:14;100232.66;;;10.72;100.00
73267;BME280;61495;53.400;7.608;2023-11-19T04:54:43;100229.97;;;10.72;100.00
73267;BME280;61495;53.400;7.608;2023-11-19T04:57:09;100222.97;;;10.71;100.00
73267;BME280;61495;53.400;7.608;2023-11-19T04:59:36;100225.41;;;10.72;100.00
73267;BME280;61495;53.400;7.608;2023-11-19T05:02:02;100232.66;;;10.72;100.00
73267;BME280;61495;53.400;7.608;2023-11-19T05:04:27;100225.41;;;10.72;100.00
73267;BME280;61495;53.400;7.608;2023-11-19T05:06:52;100231.59;;;10.73;100.00
73267;BME280;61495;53.400;7.608;2023-11-19T05:09:18;100233.69;;;10.71;100.00
73267;BME280;61495;53.400;7.608;2023-11-19T05:11:44;100231.00;;;10.71;100.00
73267;BME280;61495;53.400;7.608;2023-11-19T05:14:09;100231.00;;;10.71;100.00
73267;BME280;61495;53.400;7.608;2023-11-19T05:16:34;100232.03;;;10.70;100.00
73267;BME280;61495;53.400;7.608;2023-11-19T05:19:00;100232.03;;;10.70;100.00
73267;BME280;61495;53.400;7.608;2023-11-19T05:21:25;100238.00;;;10.72;100.00
73267;BME280;61495;53.400;7.608;2023-11-19T05:23:51;100240.69;;;10.72;100.00
73267;BME280;61495;53.400;7.608;2023-11-19T05:26:20;100241.72;;;10.71;100.00
73267;BME280;61495;53.400;7.608;2023-11-19T05:28:46;100240.06;;;10.70;100.00
73267;BME280;61495;53.400;7.608;2023-11-19T05:31:12;100239.03;;;10.71;100.00
73267;BME280;61495;53.400;7.608;2023-11-19T05:33:37;100241.72;;;10.71;100.00
73267;BME280;61495;53.400;7.608;2023-11-19T05:36:04;100233.69;;;10.71;100.00
73267;BME280;61495;53.400;7.608;2023-11-19T05:38:29;100242.75;;;10.70;100.00
73267;BME280;61495;53.400;7.608;2023-11-19T05:40:55;100250.19;;;10.68;100.00
73267;BME280;61495;53.400;7.608;2023-11-19T05:43:20;100241.56;;;10.66;100.00
73267;BME280;61495;53.400;7.608;2023-11-19T05:45:46;100237.25;;;10.65;100.00
73267;BME280;61495;53.400;7.608;2023-11-19T05:48:12;100251.69;;;10.64;100.00
73267;BME280;61495;53.400;7.608;2023-11-19T05:50:38;100235.84;;;10.62;100.00
73267;BME280;61495;53.400;7.608;2023-11-19T05:53:04;100235.00;;;10.62;100.00
73267;BME280;61495;53.400;7.608;2023-11-19T05:55:33;100241.41;;;10.60;100.00
73267;BME280;61495;53.400;7.608;2023-11-19T05:57:59;100242.47;;;10.59;100.00
73267;BME280;61495;53.400;7.608;2023-11-19T06:00:25;100245.59;;;10.56;100.00
73267;BME280;61495;53.400;7.608;2023-11-19T06:02:52;100242.09;;;10.56;100.00
73267;BME280;61495;53.400;7.608;2023-11-19T06:05:17;100241.25;;;10.55;100.00
73267;BME280;61495;53.400;7.608;2023-11-19T06:07:43;100239.59;;;10.54;100.00
73267;BME280;61495;53.400;7.608;2023-11-19T06:10:09;100241.69;;;10.52;100.00
73267;BME280;61495;53.400;7.608;2023-11-19T06:12:36;100240.06;;;10.51;100.00
73267;BME280;61495;53.400;7.608;2023-11-19T06:15:06;100248.72;;;10.53;100.00
73267;BME280;61495;53.400;7.608;2023-11-19T06:17:33;100244.63;;;10.51;100.00
73267;BME280;61495;53.400;7.608;2023-11-19T06:19:59;100256.34;;;10.50;100.00
73267;BME280;61495;53.400;7.608;2023-11-19T06:22:24;100251.44;;;10.47;100.00
73267;BME280;61495;53.400;7.608;2023-11-19T06:24:49;100241.56;;;10.47;100.00
73267;BME280;61495;53.400;7.608;2023-11-19T06:27:15;100252.47;;;10.46;100.00
73267;BME280;61495;53.400;7.608;2023-11-19T06:29:40;100257.81;;;10.46;100.00
73267;BME280;61495;53.400;7.608;2023-11-19T06:32:06;100257.00;;;10.45;100.00
73267;BME280;61495;53.400;7.608;2023-11-19T06:34:33;100250.03;;;10.44;100.00
73267;BME280;61495;53.400;7.608;2023-11-19T06:36:58;100256.41;;;10.43;100.00
73267;BME280;61495;53.400;7.608;2023-11-19T06:39:24;100257.44;;;10.42;100.00
73267;BME280;61495;53.400;7.608;2023-11-19T06:41:50;100257.44;;;10.42;100.00
73267;BME280;61495;53.400;7.608;2023-11-19T06:44:15;100263.84;;;10.41;100.00
73267;BME280;61495;53.400;7.608;2023-11-19T06:46:40;100270.25;;;10.40;100.00
73267;BME280;61495;53.400;7.608;2023-11-19T06:49:06;100271.06;;;10.41;100.00
73267;BME280;61495;53.400;7.608;2023-11-19T06:51:33;100275.59;;;10.40;100.00
73267;BME280;61495;53.400;7.608;2023-11-19T06:53:59;100270.25;;;10.40;100.00
73267;BME280;61495;53.400;7.608;2023-11-19T06:56:24;100279.31;;;10.39;100.00
73267;BME280;61495;53.400;7.608;2023-11-19T06:58:50;100280.38;;;10.38;100.00
73267;BME280;61495;53.400;7.608;2023-11-19T07:01:16;100271.50;;;10.38;100.00
73267;BME280;61495;53.400;7.608;2023-11-19T07:03:44;100276.03;;;10.37;100.00
73267;BME280;61495;53.400;7.608;2023-11-19T07:06:10;100279.75;;;10.36;100.00
73267;BME280;61495;53.400;7.608;2023-11-19T07:08:35;100283.47;;;10.35;100.00
73267;BME280;61495;53.400;7.608;2023-11-19T07:11:01;100283.47;;;10.35;100.00
73267;BME280;61495;53.400;7.608;2023-11-19T07:13:27;100288.84;;;10.35;100.00
73267;BME280;61495;53.400;7.608;2023-11-19T07:15:55;100287.19;;;10.34;100.00
73267;BME280;61495;53.400;7.608;2023-11-19T07:18:21;100280.22;;;10.33;100.00
73267;BME280;61495;53.400;7.608;2023-11-19T07:20:47;100282.06;;;10.33;100.00
73267;BME280;61495;53.400;7.608;2023-11-19T07:23:13;100284.94;;;10.31;100.00
73267;BME280;61495;53.400;7.608;2023-11-19T07:25:42;100286.00;;;10.30;100.00
73267;BME280;61495;53.400;7.608;2023-11-19T07:28:08;100292.16;;;10.31;100.00
73267;BME280;61495;53.400;7.608;2023-11-19T07:30:34;100291.34;;;10.30;100.00
73267;BME280;61495;53.400;7.608;2023-11-19T07:33:00;100294.03;;;10.30;100.00
73267;BME280;61495;53.400;7.608;2023-11-19T07:35:25;100289.91;;;10.28;100.00
73267;BME280;61495;53.400;7.608;2023-11-19T07:37:50;100300.84;;;10.26;100.00
73267;BME280;61495;53.400;7.608;2023-11-19T07:40:16;100303.53;;;10.26;100.00
73267;BME280;61495;53.400;7.608;2023-11-19T07:42:41;100309.47;;;10.28;100.00
73267;BME280;61495;53.400;7.608;2023-11-19T07:45:07;100306.78;;;10.28;100.00
73267;BME280;61495;53.400;7.608;2023-11-19T07:47:32;100306.19;;;10.26;100.00
73267;BME280;61495;53.400;7.608;2023-11-19T07:49:58;100314.81;;;10.28;100.00
73267;BME280;61495;53.400;7.608;2023-11-19T07:52:23;100318.56;;;10.27;100.00
73267;BME280;61495;53.400;7.608;2023-11-19T07:54:49;100324.50;;;10.29;100.00
73267;BME280;61495;53.400;7.608;2023-11-19T07:57:14;100324.50;;;10.29;100.00
73267;BME280;61495;53.400;7.608;2023-11-19T07:59:40;100326.16;;;10.30;100.00
73267;BME280;61495;53.400;7.608;2023-11-19T08:02:05;100319.75;;;10.31;100.00
73267;BME280;61495;53.400;7.608;2023-11-19T08:04:30;100328.41;;;10.33;100.00
73267;BME280;61495;53.400;7.608;2023-11-19T08:06:56;100323.03;;;10.33;100.00
73267;BME280;61495;53.400;7.608;2023-11-19T08:09:22;100328.16;;;10.35;100.00
73267;BME280;61495;53.400;7.608;2023-11-19T08:11:48;100323.03;;;10.33;100.00
73267;BME280;61495;53.400;7.608;2023-11-19T08:14:13;100337.84;;;10.36;100.00
73267;BME280;61495;53.400;7.608;2023-11-19T08:16:39;100335.75;;;10.38;100.00
73267;BME280;61495;53.400;7.608;2023-11-19T08:19:05;100328.72;;;10.43;100.00
73267;BME280;61495;53.400;7.608;2023-11-19T08:21:30;100337.34;;;10.45;100.00
73267;BME280;61495;53.400;7.608;2023-11-19T08:23:56;100339.00;;;10.46;100.00
73267;BME280;61495;53.400;7.608;2023-11-19T08:26:21;100343.31;;;10.47;100.00
73267;BME280;61495;53.400;7.608;2023-11-19T08:28:47;100337.53;;;10.50;100.00
73267;BME280;61495;53.400;7.608;2023-11-19T08:31:12;100334.84;;;10.50;100.00
73267;BME280;61495;53.400;7.608;2023-11-19T08:33:39;100333.78;;;10.51;100.00
73267;BME280;61495;53.400;7.608;2023-11-19T08:36:05;100352.09;;;10.54;100.00
73267;BME280;61495;53.400;7.608;2023-11-19T08:38:31;100344.91;;;10.55;100.00
73267;BME280;61495;53.400;7.608;2023-11-19T08:40:57;100349.22;;;10.56;100.00
73267;BME280;61495;53.400;7.608;2023-11-19T08:43:27;100356.59;;;10.60;100.00
73267;BME280;61495;53.400;7.608;2023-11-19T08:45:52;100351.84;;;10.63;100.00
73267;BME280;61495;53.400;7.608;2023-11-19T08:48:18;100359.44;;;10.66;100.00
73267;BME280;61495;53.400;7.608;2023-11-19T08:50:43;100364.81;;;10.66;100.00
73267;BME280;61495;53.400;7.608;2023-11-19T08:53:09;100357.38;;;10.68;100.00
73267;BME280;61495;53.400;7.608;2023-11-19T08:55:34;100360.03;;;10.68;100.00
73267;BME280;61495;53.400;7.608;2023-11-19T08:58:00;100359.81;;;10.69;100.00
73267;BME280;61495;53.400;7.608;2023-11-19T09:00:26;100366.00;;;10.70;100.00
73267;BME280;61495;53.400;7.608;2023-11-19T09:02:51;100356.94;;;10.71;100.00
73267;BME280;61495;53.400;7.608;2023-11-19T09:05:16;100365.56;;;10.73;100.00
73267;BME280;61495;53.400;7.608;2023-11-19T09:07:42;100365.56;;;10.73;100.00
73267;BME280;61495;53.400;7.608;2023-11-19T09:10:07;100361.25;;;10.72;100.00
73267;BME280;61495;53.400;7.608;2023-11-19T09:12:34;100366.19;;;10.75;100.00
73267;BME280;61495;53.400;7.608;2023-11-19T09:14:59;100367.78;;;10.76;100.00
73267;BME280;61495;53.400;7.608;2023-11-19T09:17:24;100372.31;;;10.75;100.00
73267;BME280;61495;53.400;7.608;2023-11-19T09:19:50;100370.47;;;10.76;100.00
73267;BME280;61495;53.400;7.608;2023-11-19T09:22:15;100370.28;;;10.77;100.00
73267;BME280;61495;53.400;7.608;2023-11-19T09:24:41;100369.84;;;10.80;100.00
73267;BME280;61495;53.400;7.608;2023-11-19T09:27:09;100374.97;;;10.82;100.00
73267;BME280;61495;53.400;7.608;2023-11-19T09:29:34;100376.59;;;10.83;100.00
73267;BME280;61495;53.400;7.608;2023-11-19T09:31:59;100374.53;;;10.85;100.00
73267;BME280;61495;53.400;7.608;2023-11-19T09:34:25;100370.00;;;10.85;100.00
73267;BME280;61495;53.400;7.608;2023-11-19T09:36:50;100378.19;;;10.90;100.00
73267;BME280;61495;53.400;7.608;2023-11-19T09:39:16;100366.19;;;10.93;100.00
73267;BME280;61495;53.400;7.608;2023-11-19T09:41:43;100372.75;;;10.97;100.00
73267;BME280;61495;53.400;7.608;2023-11-19T09:44:10;100373.16;;;11.00;100.00
73267;BME280;61495;53.400;7.608;2023-11-19T09:46:38;100373.53;;;11.04;100.00
73267;BME280;61495;53.400;7.608;2023-11-19T09:49:04;100378.44;;;11.07;100.00
73267;BME280;61495;53.400;7.608;2023-11-19T09:51:31;100373.22;;;11.12;100.00
73267;BME280;61495;53.400;7.608;2023-11-19T09:53:56;100370.50;;;11.19;100.00
73267;BME280;61495;53.400;7.608;2023-11-19T09:56:22;100380.78;;;11.22;100.00
73267;BME280;61495;53.400;7.608;2023-11-19T09:58:48;100383.22;;;11.23;100.00
73267;BME280;61495;53.400;7.608;2023-11-19T10:01:14;100381.16;;;11.25;100.00
73267;BME280;61495;53.400;7.608;2023-11-19T10:03:40;100384.81;;;11.31;100.00
73267;BME280;61495;53.400;7.608;2023-11-19T10:06:07;100367.88;;;11.30;100.00
73267;BME280;61495;53.400;7.608;2023-11-19T10:08:33;100377.72;;;11.36;100.00
73267;BME280;61495;53.400;7.608;2023-11-19T10:10:59;100378.91;;;11.40;100.00
73267;BME280;61495;53.400;7.608;2023-11-19T10:13:31;100375.31;;;11.46;100.00
73267;BME280;61495;53.400;7.608;2023-11-19T10:15:56;100374.66;;;11.51;100.00
73267;BME280;61495;53.400;7.608;2023-11-19T10:18:27;100378.09;;;11.58;100.00
73267;BME280;61495;53.400;7.608;2023-11-19T10:20:53;100374.16;;;11.60;100.00
73267;BME280;61495;53.400;7.608;2023-11-19T10:23:18;100375.19;;;11.59;100.00
73267;BME280;61495;53.400;7.608;2023-11-19T10:25:44;100375.75;;;11.61;100.00
73267;BME280;61495;53.400;7.608;2023-11-19T10:28:10;100369.94;;;11.64;100.00
73267;BME280;61495;53.400;7.608;2023-11-19T10:30:35;100371.00;;;11.63;100.00
73267;BME280;61495;53.400;7.608;2023-11-19T10:33:11;100369.94;;;11.64;100.00
73267;BME280;61495;53.400;7.608;2023-11-19T10:35:56;100374.03;;;11.67;100.00
73267;BME280;61495;53.400;7.608;2023-11-19T10:38:23;100378.19;;;11.69;100.00
73267;BME280;61495;53.400;7.608;2023-11-19T10:40:49;100370.94;;;11.70;100.00
73267;BME280;61495;53.400;7.608;2023-11-19T10:43:18;100381.00;;;11.75;100.00
73267;BME280;61495;53.400;7.608;2023-11-19T10:45:44;100374.00;;;11.74;100.00
73267;BME280;61495;53.400;7.608;2023-11-19T10:48:10;100375.66;;;11.75;100.00
73267;BME280;61495;53.400;7.608;2023-11-19T10:50:36;100381.84;;;11.75;100.00
73267;BME280;61495;53.400;7.608;2023-11-19T10:53:03;100389.66;;;11.77;100.00
73267;BME280;61495;53.400;7.608;2023-11-19T10:55:31;100384.28;;;11.77;100.00
73267;BME280;61495;53.400;7.608;2023-11-19T10:58:01;100380.13;;;11.81;100.00
73267;BME280;61495;53.400;7.608;2023-11-19T11:00:29;100373.03;;;11.86;100.00
73267;BME280;61495;53.400;7.608;2023-11-19T11:03:01;100375.00;;;11.91;100.00
73267;BME280;61495;53.400;7.608;2023-11-19T11:05:29;100375.75;;;11.98;100.00
73267;BME280;61495;53.400;7.608;2023-11-19T11:07:58;100371.94;;;12.05;100.00
73267;BME280;61495;53.400;7.608;2023-11-19T11:10:25;100368.44;;;12.05;100.00
73267;BME280;61495;53.400;7.608;2023-11-19T11:12:52;100377.31;;;12.05;100.00
73267;BME280;61495;53.400;7.608;2023-11-19T11:15:22;100370.88;;;12.06;100.00
73267;BME280;61495;53.400;7.608;2023-11-19T11:17:50;100364.69;;;12.06;100.00
73267;BME280;61495;53.400;7.608;2023-11-19T11:20:18;100366.91;;;12.09;100.00
73267;BME280;61495;53.400;7.608;2023-11-19T11:31:39;100356.44;;;12.19;100.00
73267;BME280;61495;53.400;7.608;2023-11-19T11:37:32;100359.34;;;12.17;100.00
73267;BME280;61495;53.400;7.608;2023-11-19T11:40:01;100376.28;;;12.18;100.00
73267;BME280;61495;53.400;7.608;2023-11-19T11:42:31;100371.38;;;12.15;100.00
73267;BME280;61495;53.400;7.608;2023-11-19T11:45:06;100362.72;;;12.13;100.00
73267;BME280;61495;53.400;7.608;2023-11-19T11:50:11;100368.56;;;12.10;100.00
73267;BME280;61495;53.400;7.608;2023-11-19T11:56:00;100364.69;;;12.06;100.00
73267;BME280;61495;53.400;7.608;2023-11-19T11:58:30;100367.38;;;12.06;100.00
73267;BME280;61495;53.400;7.608;2023-11-19T12:00:58;100368.06;;;12.01;100.00
73267;BME280;61495;53.400;7.608;2023-11-19T12:03:24;100357.91;;;12.03;100.00
73267;BME280;61495;53.400;7.608;2023-11-19T12:05:51;100354.19;;;12.04;100.00
73267;BME280;61495;53.400;7.608;2023-11-19T12:08:25;100361.88;;;12.01;100.00
73267;BME280;61495;53.400;7.608;2023-11-19T12:10:51;100352.16;;;12.00;100.00
73267;BME280;61495;53.400;7.608;2023-11-19T12:13:18;100355.91;;;11.99;100.00
73267;BME280;61495;53.400;7.608;2023-11-19T12:18:31;100358.81;;;11.97;100.00
73267;BME280;61495;53.400;7.608;2023-11-19T12:20:58;100350.19;;;11.95;100.00
73267;BME280;61495;53.400;7.608;2023-11-19T12:23:26;100354.34;;;11.91;100.00
73267;BME280;61495;53.400;7.608;2023-11-19T12:25:51;100350.63;;;11.92;100.00
73267;BME280;61495;53.400;7.608;2023-11-19T12:28:18;100351.91;;;11.90;100.00
73267;BME280;61495;53.400;7.608;2023-11-19T12:30:44;100352.13;;;11.88;100.00
73267;BME280;61495;53.400;7.608;2023-11-19T12:33:11;100356.09;;;11.86;100.00
73267;BME280;61495;53.400;7.608;2023-11-19T12:35:43;100349.09;;;11.85;100.00
73267;BME280;61495;53.400;7.608;2023-11-19T12:38:18;100359.84;;;11.85;100.00
73267;BME280;61495;53.400;7.608;2023-11-19T12:40:44;100360.88;;;11.84;100.00
73267;BME280;61495;53.400;7.608;2023-11-19T12:43:10;100352.00;;;11.83;100.00
73267;BME280;61495;53.400;7.608;2023-11-19T12:45:36;100359.22;;;11.83;100.00
73267;BME280;61495;53.400;7.608;2023-11-19T12:48:05;100360.88;;;11.84;100.00
73267;BME280;61495;53.400;7.608;2023-11-19T12:50:50;100353.41;;;11.86;100.00
73267;BME280;61495;53.400;7.608;2023-11-19T12:53:16;100350.72;;;11.86;100.00
73267;BME280;61495;53.400;7.608;2023-11-19T12:55:41;100355.25;;;11.85;100.00
73267;BME280;61495;53.400;7.608;2023-11-19T12:58:07;100352.81;;;11.84;100.00
73267;BME280;61495;53.400;7.608;2023-11-19T13:00:32;100354.47;;;11.85;100.00
73267;BME280;61495;53.400;7.608;2023-11-19T13:02:58;100357.16;;;11.85;100.00
73267;BME280;61495;53.400;7.608;2023-11-19T13:05:31;100352.81;;;11.84;100.00